createdAt,value
2017-11-08T00:00:29.270Z,953.27
2017-11-08T00:01:29.193Z,953.31
2017-11-08T00:02:29.188Z,953.27
2017-11-08T00:03:29.178Z,953.29
2017-11-08T00:04:29.148Z,953.27
2017-11-08T00:05:29.135Z,953.32
2017-11-08T00:06:29.122Z,953.29
2017-11-08T00:07:29.108Z,953.33
2017-11-08T00:08:29.095Z,953.39
2017-11-08T00:09:29.079Z,953.37
2017-11-08T00:10:29.065Z,953.35
2017-11-08T00:11:29.050Z,953.39
2017-11-08T00:12:29.038Z,953.42
2017-11-08T00:13:29.022Z,953.41
2017-11-08T00:14:29.008Z,953.36
2017-11-08T00:15:28.995Z,953.38
2017-11-08T00:16:28.980Z,953.28
2017-11-08T00:17:28.968Z,953.23
2017-11-08T00:18:28.956Z,953.25
2017-11-08T00:19:28.938Z,953.19
2017-11-08T00:20:28.926Z,953.19
2017-11-08T00:21:28.913Z,953.17
2017-11-08T00:22:28.896Z,953.2
2017-11-08T00:23:28.882Z,953.13
2017-11-08T00:24:28.887Z,953.17
2017-11-08T00:25:28.855Z,953.11
2017-11-08T00:26:28.841Z,953.19
2017-11-08T00:27:28.826Z,953.24
2017-11-08T00:28:28.813Z,953.25
2017-11-08T00:29:28.798Z,953.37
2017-11-08T00:30:28.788Z,953.4
2017-11-08T00:31:28.770Z,953.4
2017-11-08T00:32:28.771Z,953.33
2017-11-08T00:33:28.742Z,953.35
2017-11-08T00:34:28.741Z,953.39
2017-11-08T00:35:28.715Z,953.47
2017-11-08T00:36:28.698Z,953.52
2017-11-08T00:37:28.685Z,953.51
2017-11-08T00:38:28.673Z,953.5
2017-11-08T00:39:28.660Z,953.54
2017-11-08T00:40:28.643Z,953.52
2017-11-08T00:41:28.630Z,953.47
2017-11-08T00:42:28.617Z,953.54
2017-11-08T00:43:28.616Z,953.53
2017-11-08T00:44:28.586Z,953.53
2017-11-08T00:45:28.572Z,953.52
2017-11-08T00:46:28.560Z,953.58
2017-11-08T00:47:28.544Z,953.58
2017-11-08T00:48:28.531Z,953.54
2017-11-08T00:49:28.515Z,953.49
2017-11-08T00:50:28.502Z,953.5
2017-11-08T00:51:28.488Z,953.53
2017-11-08T00:52:28.474Z,953.48
2017-11-08T00:53:28.461Z,953.48
2017-11-08T00:54:28.445Z,953.5
2017-11-08T00:55:28.432Z,953.52
2017-11-08T00:56:28.417Z,953.51
2017-11-08T00:57:28.404Z,953.53
2017-11-08T00:58:28.388Z,953.49
2017-11-08T00:59:28.375Z,953.52
2017-11-08T01:00:28.361Z,953.59
2017-11-08T01:01:28.352Z,953.53
2017-11-08T01:02:28.338Z,953.45
2017-11-08T01:03:28.320Z,953.44
2017-11-08T01:04:28.305Z,953.48
2017-11-08T01:05:28.290Z,953.52
2017-11-08T01:06:28.279Z,953.47
2017-11-08T01:07:28.262Z,953.46
2017-11-08T01:08:28.248Z,953.46
2017-11-08T01:09:28.233Z,953.45
2017-11-08T01:10:28.220Z,953.45
2017-11-08T01:11:28.205Z,953.49
2017-11-08T01:12:28.192Z,953.51
2017-11-08T01:13:28.185Z,953.44
2017-11-08T01:14:28.162Z,953.41
2017-11-08T01:15:28.148Z,953.36
2017-11-08T01:16:28.133Z,953.35
2017-11-08T01:17:28.120Z,953.36
2017-11-08T01:18:28.104Z,953.34
2017-11-08T01:19:28.104Z,953.31
2017-11-08T01:20:28.077Z,953.28
2017-11-08T01:21:28.064Z,953.24
2017-11-08T01:22:28.049Z,953.14
2017-11-08T01:23:28.036Z,953.16
2017-11-08T01:24:28.021Z,953.15
2017-11-08T01:25:28.005Z,953.13
2017-11-08T01:26:27.992Z,953.08
2017-11-08T01:27:27.977Z,953.03
2017-11-08T01:28:27.966Z,952.95
2017-11-08T01:29:27.951Z,952.86
2017-11-08T01:30:27.936Z,952.81
2017-11-08T01:31:27.920Z,952.86
2017-11-08T01:32:27.913Z,952.88
2017-11-08T01:33:27.893Z,953
2017-11-08T01:34:27.879Z,953.01
2017-11-08T01:35:27.865Z,952.98
2017-11-08T01:36:27.851Z,952.97
2017-11-08T01:37:27.837Z,952.9
2017-11-08T01:38:27.824Z,952.81
2017-11-08T01:39:27.808Z,952.84
2017-11-08T01:40:27.793Z,952.97
2017-11-08T01:41:27.780Z,952.96
2017-11-08T01:42:27.764Z,952.97
2017-11-08T01:43:27.750Z,952.97
2017-11-08T01:44:27.743Z,953.01
2017-11-08T01:45:27.740Z,953.02
2017-11-08T01:46:27.708Z,953.05
2017-11-08T01:47:27.692Z,952.99
2017-11-08T01:48:27.696Z,953.01
2017-11-08T01:49:27.664Z,953.04
2017-11-08T01:50:27.671Z,953.06
2017-11-08T01:51:27.637Z,953.05
2017-11-08T01:52:27.626Z,952.99
2017-11-08T01:53:27.606Z,952.92
2017-11-08T01:54:27.594Z,952.95
2017-11-08T01:55:27.593Z,952.99
2017-11-08T01:56:27.564Z,953.02
2017-11-08T01:57:27.554Z,952.94
2017-11-08T01:58:27.536Z,952.84
2017-11-08T01:59:27.523Z,952.74
2017-11-08T02:00:27.508Z,952.71
2017-11-08T02:01:27.492Z,952.74
2017-11-08T02:02:27.478Z,952.77
2017-11-08T02:03:27.472Z,952.85
2017-11-08T02:04:27.450Z,952.78
2017-11-08T02:05:27.442Z,952.78
2017-11-08T02:06:27.421Z,952.77
2017-11-08T02:07:27.410Z,952.85
2017-11-08T02:08:27.392Z,952.82
2017-11-08T02:09:27.378Z,952.8
2017-11-08T02:10:27.366Z,952.91
2017-11-08T02:11:27.350Z,952.9
2017-11-08T02:12:27.335Z,952.86
2017-11-08T02:13:27.326Z,952.87
2017-11-08T02:14:27.308Z,952.87
2017-11-08T02:15:27.293Z,952.94
2017-11-08T02:16:27.279Z,952.87
2017-11-08T02:17:27.276Z,952.89
2017-11-08T02:18:27.250Z,952.81
2017-11-08T02:19:27.235Z,952.77
2017-11-08T02:20:27.235Z,952.69
2017-11-08T02:21:27.208Z,952.65
2017-11-08T02:22:27.194Z,952.7
2017-11-08T02:23:27.180Z,952.83
2017-11-08T02:24:27.165Z,952.94
2017-11-08T02:25:27.152Z,952.99
2017-11-08T02:26:27.137Z,953.01
2017-11-08T02:27:27.122Z,953.02
2017-11-08T02:28:27.108Z,953.09
2017-11-08T02:29:27.094Z,953.16
2017-11-08T02:30:27.079Z,953.23
2017-11-08T02:31:27.067Z,953.23
2017-11-08T02:32:27.053Z,953.19
2017-11-08T02:33:27.039Z,953.21
2017-11-08T02:34:27.022Z,953.11
2017-11-08T02:35:27.015Z,953.02
2017-11-08T02:36:27.002Z,952.96
2017-11-08T02:37:26.980Z,952.87
2017-11-08T02:38:26.967Z,952.81
2017-11-08T02:39:26.953Z,952.77
2017-11-08T02:40:26.939Z,952.78
2017-11-08T02:41:26.924Z,952.79
2017-11-08T02:42:26.911Z,952.72
2017-11-08T02:43:26.896Z,952.68
2017-11-08T02:44:26.881Z,952.73
2017-11-08T02:45:26.868Z,952.75
2017-11-08T02:46:26.854Z,952.75
2017-11-08T02:47:26.840Z,952.8
2017-11-08T02:48:26.823Z,952.82
2017-11-08T02:49:26.811Z,952.91
2017-11-08T02:50:26.814Z,952.95
2017-11-08T02:51:26.784Z,952.99
2017-11-08T02:52:26.788Z,952.92
2017-11-08T02:53:26.752Z,952.9
2017-11-08T02:54:26.747Z,952.91
2017-11-08T02:55:26.724Z,952.89
2017-11-08T02:56:26.710Z,952.88
2017-11-08T02:57:26.700Z,952.91
2017-11-08T02:58:26.686Z,952.89
2017-11-08T02:59:26.667Z,952.9
2017-11-08T03:00:26.655Z,952.85
2017-11-08T03:01:26.640Z,952.81
2017-11-08T03:02:26.627Z,952.79
2017-11-08T03:03:26.611Z,952.8
2017-11-08T03:04:26.597Z,952.81
2017-11-08T03:05:26.584Z,952.82
2017-11-08T03:06:26.569Z,952.87
2017-11-08T03:07:26.561Z,952.86
2017-11-08T03:08:26.540Z,952.93
2017-11-08T03:09:26.526Z,952.89
2017-11-08T03:10:26.512Z,952.86
2017-11-08T03:11:26.499Z,952.82
2017-11-08T03:12:26.484Z,952.81
2017-11-08T03:13:26.470Z,952.83
2017-11-08T03:14:26.458Z,952.85
2017-11-08T03:15:26.441Z,952.82
2017-11-08T03:16:26.427Z,952.84
2017-11-08T03:17:26.412Z,952.88
2017-11-08T03:18:26.400Z,952.93
2017-11-08T03:19:26.384Z,952.95
2017-11-08T03:20:26.370Z,952.93
2017-11-08T03:21:26.356Z,952.91
2017-11-08T03:22:26.342Z,952.93
2017-11-08T03:23:26.332Z,953.03
2017-11-08T03:24:26.313Z,953.11
2017-11-08T03:25:26.300Z,953.11
2017-11-08T03:26:26.288Z,953.08
2017-11-08T03:27:26.272Z,953.07
2017-11-08T03:28:26.257Z,953.12
2017-11-08T03:29:26.243Z,953.02
2017-11-08T03:30:26.230Z,952.99
2017-11-08T03:31:26.237Z,953
2017-11-08T03:32:26.201Z,953.01
2017-11-08T03:33:26.188Z,952.96
2017-11-08T03:34:26.188Z,952.99
2017-11-08T03:35:26.159Z,952.99
2017-11-08T03:36:26.155Z,953.04
2017-11-08T03:37:26.131Z,953.01
2017-11-08T03:38:26.117Z,953.03
2017-11-08T03:39:26.102Z,952.96
2017-11-08T03:40:26.088Z,952.92
2017-11-08T03:41:26.095Z,952.95
2017-11-08T03:42:26.067Z,952.96
2017-11-08T03:43:26.045Z,952.93
2017-11-08T03:44:26.032Z,952.91
2017-11-08T03:45:26.019Z,952.85
2017-11-08T03:46:26.004Z,952.83
2017-11-08T03:47:25.991Z,952.77
2017-11-08T03:48:25.975Z,952.74
2017-11-08T03:49:25.972Z,952.73
2017-11-08T03:50:25.946Z,952.82
2017-11-08T03:51:25.933Z,952.94
2017-11-08T03:52:25.918Z,953.03
2017-11-08T03:53:25.905Z,952.96
2017-11-08T03:54:25.890Z,952.84
2017-11-08T03:55:25.875Z,952.71
2017-11-08T03:56:25.861Z,952.7
2017-11-08T03:57:25.847Z,952.74
2017-11-08T03:58:25.834Z,952.86
2017-11-08T03:59:25.820Z,952.92
2017-11-08T04:00:25.806Z,952.97
2017-11-08T04:01:25.808Z,952.95
2017-11-08T04:02:25.778Z,952.98
2017-11-08T04:03:25.766Z,952.97
2017-11-08T04:04:25.747Z,952.9
2017-11-08T04:05:25.735Z,952.92
2017-11-08T04:06:25.720Z,952.92
2017-11-08T04:07:25.706Z,952.94
2017-11-08T04:08:25.692Z,952.96
2017-11-08T04:09:25.678Z,952.94
2017-11-08T04:10:25.663Z,952.98
2017-11-08T04:11:25.649Z,952.91
2017-11-08T04:12:25.634Z,952.9
2017-11-08T04:13:25.621Z,952.88
2017-11-08T04:14:25.607Z,952.91
2017-11-08T04:15:25.592Z,952.9
2017-11-08T04:16:25.578Z,952.92
2017-11-08T04:17:25.565Z,952.95
2017-11-08T04:18:25.551Z,952.91
2017-11-08T04:19:25.536Z,952.87
2017-11-08T04:20:25.527Z,952.82
2017-11-08T04:21:25.508Z,952.92
2017-11-08T04:22:25.495Z,952.89
2017-11-08T04:23:25.478Z,952.9
2017-11-08T04:24:25.465Z,952.91
2017-11-08T04:25:25.472Z,952.88
2017-11-08T04:26:25.436Z,952.9
2017-11-08T04:27:25.422Z,952.85
2017-11-08T04:28:25.414Z,952.84
2017-11-08T04:29:25.395Z,952.82
2017-11-08T04:30:25.379Z,952.83
2017-11-08T04:31:25.368Z,952.82
2017-11-08T04:32:25.372Z,952.82
2017-11-08T04:33:25.338Z,952.88
2017-11-08T04:34:25.325Z,952.92
2017-11-08T04:35:25.310Z,952.89
2017-11-08T04:36:25.296Z,952.96
2017-11-08T04:37:25.283Z,952.94
2017-11-08T04:38:25.268Z,952.9
2017-11-08T04:39:25.254Z,952.79
2017-11-08T04:40:25.241Z,952.72
2017-11-08T04:41:25.227Z,952.63
2017-11-08T04:42:25.212Z,952.65
2017-11-08T04:43:25.197Z,952.74
2017-11-08T04:44:25.185Z,952.81
2017-11-08T04:45:25.171Z,952.8
2017-11-08T04:46:25.156Z,952.78
2017-11-08T04:47:25.155Z,952.76
2017-11-08T04:48:25.128Z,952.76
2017-11-08T04:49:25.119Z,952.82
2017-11-08T04:50:25.101Z,952.82
2017-11-08T04:51:25.086Z,952.85
2017-11-08T04:52:25.071Z,952.82
2017-11-08T04:53:25.058Z,952.88
2017-11-08T04:54:25.045Z,952.88
2017-11-08T04:55:25.030Z,952.84
2017-11-08T04:56:25.017Z,952.83
2017-11-08T04:57:25.008Z,952.82
2017-11-08T04:58:24.989Z,952.8
2017-11-08T04:59:24.980Z,952.83
2017-11-08T05:00:24.960Z,952.81
2017-11-08T05:01:24.946Z,952.81
2017-11-08T05:02:24.933Z,952.79
2017-11-08T05:03:24.917Z,952.75
2017-11-08T05:04:24.904Z,952.8
2017-11-08T05:05:24.890Z,952.77
2017-11-08T05:06:24.878Z,952.79
2017-11-08T05:07:24.862Z,952.76
2017-11-08T05:08:24.847Z,952.77
2017-11-08T05:09:24.836Z,952.81
2017-11-08T05:10:24.824Z,952.84
2017-11-08T05:11:24.809Z,952.87
2017-11-08T05:12:24.791Z,952.86
2017-11-08T05:13:24.777Z,952.84
2017-11-08T05:14:24.762Z,952.77
2017-11-08T05:15:24.747Z,952.8
2017-11-08T05:16:24.735Z,952.83
2017-11-08T05:17:24.721Z,952.9
2017-11-08T05:18:24.708Z,952.83
2017-11-08T05:19:24.691Z,952.85
2017-11-08T05:20:24.677Z,952.85
2017-11-08T05:21:24.662Z,952.85
2017-11-08T05:22:24.647Z,952.91
2017-11-08T05:23:24.634Z,952.9
2017-11-08T05:24:24.620Z,952.93
2017-11-08T05:25:24.603Z,952.96
2017-11-08T05:26:24.590Z,952.93
2017-11-08T05:27:24.573Z,952.92
2017-11-08T05:28:24.561Z,953.01
2017-11-08T05:29:24.545Z,952.99
2017-11-08T05:30:24.532Z,953.02
2017-11-08T05:31:24.518Z,953.03
2017-11-08T05:32:24.502Z,953.04
2017-11-08T05:33:24.489Z,953.07
2017-11-08T05:34:24.474Z,953.07
2017-11-08T05:35:24.459Z,953.08
2017-11-08T05:36:24.444Z,953.08
2017-11-08T05:37:24.433Z,953.11
2017-11-08T05:38:24.415Z,953.12
2017-11-08T05:39:24.403Z,953.15
2017-11-08T05:40:24.384Z,953.2
2017-11-08T05:41:24.371Z,953.2
2017-11-08T05:42:24.359Z,953.25
2017-11-08T05:43:24.343Z,953.24
2017-11-08T05:44:24.329Z,953.28
2017-11-08T05:45:24.314Z,953.24
2017-11-08T05:46:24.300Z,953.28
2017-11-08T05:47:24.285Z,953.23
2017-11-08T05:48:24.270Z,953.21
2017-11-08T05:49:24.257Z,953.19
2017-11-08T05:50:24.240Z,953.27
2017-11-08T05:51:24.228Z,953.24
2017-11-08T05:52:24.212Z,953.29
2017-11-08T05:53:24.198Z,953.24
2017-11-08T05:54:24.183Z,953.27
2017-11-08T05:55:24.169Z,953.29
2017-11-08T05:56:24.155Z,953.33
2017-11-08T05:57:24.154Z,953.28
2017-11-08T05:58:24.124Z,953.3
2017-11-08T05:59:24.109Z,953.28
2017-11-08T06:00:24.095Z,953.27
2017-11-08T06:01:24.083Z,953.26
2017-11-08T06:02:24.066Z,953.34
2017-11-08T06:03:24.051Z,953.36
2017-11-08T06:04:24.055Z,953.29
2017-11-08T06:05:24.043Z,953.31
2017-11-08T06:06:24.019Z,953.29
2017-11-08T06:07:23.998Z,953.29
2017-11-08T06:08:23.979Z,953.32
2017-11-08T06:09:23.963Z,953.28
2017-11-08T06:10:23.950Z,953.23
2017-11-08T06:11:23.934Z,953.25
2017-11-08T06:12:23.938Z,953.26
2017-11-08T06:13:23.904Z,953.26
2017-11-08T06:14:23.892Z,953.28
2017-11-08T06:15:23.886Z,953.32
2017-11-08T06:16:23.860Z,953.3
2017-11-08T06:17:23.847Z,953.28
2017-11-08T06:18:23.843Z,953.34
2017-11-08T06:19:23.819Z,953.27
2017-11-08T06:20:23.803Z,953.27
2017-11-08T06:21:23.788Z,953.32
2017-11-08T06:22:23.782Z,953.31
2017-11-08T06:23:23.758Z,953.36
2017-11-08T06:24:23.745Z,953.33
2017-11-08T06:25:23.730Z,953.34
2017-11-08T06:26:23.716Z,953.33
2017-11-08T06:27:23.700Z,953.29
2017-11-08T06:28:23.693Z,953.3
2017-11-08T06:29:23.672Z,953.32
2017-11-08T06:30:23.657Z,953.37
2017-11-08T06:31:23.643Z,953.34
2017-11-08T06:32:23.628Z,953.37
2017-11-08T06:33:23.613Z,953.33
2017-11-08T06:34:23.597Z,953.39
2017-11-08T06:35:23.598Z,953.37
2017-11-08T06:36:23.570Z,953.36
2017-11-08T06:37:23.555Z,953.39
2017-11-08T06:38:23.539Z,953.43
2017-11-08T06:39:23.526Z,953.41
2017-11-08T06:40:23.511Z,953.39
2017-11-08T06:41:23.504Z,953.4
2017-11-08T06:42:23.500Z,953.37
2017-11-08T06:43:23.467Z,953.36
2017-11-08T06:44:23.453Z,953.36
2017-11-08T06:45:23.438Z,953.4
2017-11-08T06:46:23.426Z,953.39
2017-11-08T06:47:23.411Z,953.45
2017-11-08T06:48:23.397Z,953.4
2017-11-08T06:49:23.382Z,953.39
2017-11-08T06:50:23.368Z,953.39
2017-11-08T06:51:23.356Z,953.42
2017-11-08T06:52:23.338Z,953.5
2017-11-08T06:53:23.324Z,953.54
2017-11-08T06:54:23.311Z,953.51
2017-11-08T06:55:23.329Z,953.49
2017-11-08T06:56:23.283Z,953.54
2017-11-08T06:57:23.269Z,953.62
2017-11-08T06:58:23.252Z,953.63
2017-11-08T06:59:23.239Z,953.66
2017-11-08T07:00:23.228Z,953.67
2017-11-08T07:01:23.211Z,953.71
2017-11-08T07:02:23.197Z,953.7
2017-11-08T07:03:23.182Z,953.7
2017-11-08T07:04:23.168Z,953.69
2017-11-08T07:05:23.155Z,953.68
2017-11-08T07:06:23.142Z,953.73
2017-11-08T07:07:23.126Z,953.75
2017-11-08T07:08:23.112Z,953.64
2017-11-08T07:09:23.102Z,953.7
2017-11-08T07:10:23.085Z,953.65
2017-11-08T07:11:23.071Z,953.65
2017-11-08T07:12:23.058Z,953.6
2017-11-08T07:13:23.043Z,953.56
2017-11-08T07:14:23.029Z,953.56
2017-11-08T07:15:23.015Z,953.57
2017-11-08T07:16:23.007Z,953.57
2017-11-08T07:17:22.989Z,953.54
2017-11-08T07:18:22.996Z,953.5
2017-11-08T07:19:22.960Z,953.56
2017-11-08T07:20:22.946Z,953.56
2017-11-08T07:21:22.932Z,953.61
2017-11-08T07:22:22.920Z,953.7
2017-11-08T07:23:22.906Z,953.7
2017-11-08T07:24:22.893Z,953.72
2017-11-08T07:25:22.881Z,953.75
2017-11-08T07:26:22.863Z,953.75
2017-11-08T07:27:22.849Z,953.74
2017-11-08T07:28:22.851Z,953.82
2017-11-08T07:29:22.822Z,953.85
2017-11-08T07:30:22.809Z,953.84
2017-11-08T07:31:22.795Z,953.84
2017-11-08T07:32:22.782Z,953.82
2017-11-08T07:33:22.775Z,953.81
2017-11-08T07:34:22.753Z,953.74
2017-11-08T07:35:22.745Z,953.73
2017-11-08T07:36:22.736Z,953.78
2017-11-08T07:37:22.713Z,953.79
2017-11-08T07:38:22.699Z,953.76
2017-11-08T07:39:22.686Z,953.75
2017-11-08T07:40:22.673Z,953.78
2017-11-08T07:41:22.667Z,953.8
2017-11-08T07:42:22.646Z,953.83
2017-11-08T07:43:22.631Z,953.88
2017-11-08T07:44:22.617Z,953.9
2017-11-08T07:45:22.603Z,953.91
2017-11-08T07:46:22.591Z,953.93
2017-11-08T07:47:22.576Z,953.93
2017-11-08T07:48:22.564Z,953.92
2017-11-08T07:49:22.549Z,953.93
2017-11-08T07:50:22.536Z,953.97
2017-11-08T07:51:22.522Z,953.99
2017-11-08T07:52:22.510Z,954
2017-11-08T07:53:22.496Z,953.94
2017-11-08T07:54:22.485Z,953.93
2017-11-08T07:55:22.470Z,953.92
2017-11-08T07:56:22.457Z,953.85
2017-11-08T07:57:22.444Z,953.86
2017-11-08T07:58:22.430Z,953.86
2017-11-08T07:59:22.429Z,953.85
2017-11-08T08:00:22.405Z,953.84
2017-11-08T08:01:22.392Z,953.83
2017-11-08T08:02:22.378Z,953.78
2017-11-08T08:03:22.366Z,953.81
2017-11-08T08:04:22.352Z,953.83
2017-11-08T08:05:22.339Z,953.79
2017-11-08T08:06:22.325Z,953.72
2017-11-08T08:07:22.313Z,953.67
2017-11-08T08:08:22.301Z,953.72
2017-11-08T08:09:22.288Z,953.74
2017-11-08T08:10:22.278Z,953.8
2017-11-08T08:11:22.261Z,953.79
2017-11-08T08:12:22.248Z,953.69
2017-11-08T08:13:22.242Z,953.66
2017-11-08T08:14:22.329Z,953.68
2017-11-08T08:15:22.264Z,953.72
2017-11-08T08:16:22.199Z,953.78
2017-11-08T08:17:22.189Z,953.8
2017-11-08T08:18:22.171Z,953.84
2017-11-08T08:19:22.166Z,953.84
2017-11-08T08:20:22.147Z,953.75
2017-11-08T08:21:22.155Z,953.7
2017-11-08T08:22:22.128Z,953.67
2017-11-08T08:23:22.109Z,953.62
2017-11-08T08:24:22.095Z,953.57
2017-11-08T08:25:22.088Z,953.6
2017-11-08T08:26:22.071Z,953.62
2017-11-08T08:27:22.058Z,953.65
2017-11-08T08:28:22.047Z,953.69
2017-11-08T08:29:22.036Z,953.71
2017-11-08T08:30:22.040Z,953.66
2017-11-08T08:31:22.008Z,953.65
2017-11-08T08:32:21.995Z,953.67
2017-11-08T08:33:21.983Z,953.6
2017-11-08T08:34:21.971Z,953.52
2017-11-08T08:35:21.958Z,953.56
2017-11-08T08:36:21.946Z,953.52
2017-11-08T08:37:21.934Z,953.57
2017-11-08T08:38:22.272Z,953.61
2017-11-08T08:39:21.908Z,953.59
2017-11-08T08:40:21.897Z,953.63
2017-11-08T08:41:21.885Z,953.71
2017-11-08T08:42:21.872Z,953.71
2017-11-08T08:43:21.861Z,953.74
2017-11-08T08:44:21.847Z,953.77
2017-11-08T08:45:21.836Z,953.78
2017-11-08T08:46:21.823Z,953.83
2017-11-08T08:47:21.812Z,953.88
2017-11-08T08:48:21.800Z,953.89
2017-11-08T08:49:21.806Z,953.87
2017-11-08T08:50:21.776Z,953.85
2017-11-08T08:51:21.771Z,953.81
2017-11-08T08:52:21.755Z,953.86
2017-11-08T08:53:21.739Z,953.9
2017-11-08T08:54:21.728Z,953.86
2017-11-08T08:55:21.716Z,953.85
2017-11-08T08:56:21.707Z,953.87
2017-11-08T08:57:21.693Z,953.84
2017-11-08T08:58:21.680Z,953.85
2017-11-08T08:59:21.669Z,953.89
2017-11-08T09:00:21.656Z,953.93
2017-11-08T09:01:21.645Z,953.9
2017-11-08T09:02:21.633Z,953.95
2017-11-08T09:03:21.623Z,953.93
2017-11-08T09:04:21.609Z,953.94
2017-11-08T09:05:21.597Z,953.94
2017-11-08T09:06:21.587Z,953.94
2017-11-08T09:07:21.577Z,953.94
2017-11-08T09:08:21.563Z,953.95
2017-11-08T09:09:21.551Z,954.02
2017-11-08T09:10:21.541Z,954.02
2017-11-08T09:11:21.527Z,954.09
2017-11-08T09:12:21.516Z,954.1
2017-11-08T09:13:21.505Z,954.08
2017-11-08T09:14:21.494Z,954.07
2017-11-08T09:15:21.483Z,954.1
2017-11-08T09:16:21.470Z,954.07
2017-11-08T09:17:21.459Z,954.1
2017-11-08T09:18:21.449Z,954.11
2017-11-08T09:19:21.435Z,954.14
2017-11-08T09:20:21.435Z,954.16
2017-11-08T09:21:21.413Z,954.17
2017-11-08T09:22:21.400Z,954.21
2017-11-08T09:23:21.390Z,954.27
2017-11-08T09:24:21.379Z,954.34
2017-11-08T09:25:21.366Z,954.41
2017-11-08T09:26:21.355Z,954.46
2017-11-08T09:27:21.345Z,954.51
2017-11-08T09:28:21.332Z,954.46
2017-11-08T09:29:21.321Z,954.44
2017-11-08T09:30:21.309Z,954.44
2017-11-08T09:31:21.304Z,954.44
2017-11-08T09:32:21.290Z,954.46
2017-11-08T09:33:21.275Z,954.43
2017-11-08T09:34:21.275Z,954.44
2017-11-08T09:35:21.255Z,954.47
2017-11-08T09:36:21.295Z,954.52
2017-11-08T09:37:21.231Z,954.54
2017-11-08T09:38:21.229Z,954.54
2017-11-08T09:39:21.212Z,954.57
2017-11-08T09:40:21.196Z,954.56
2017-11-08T09:41:21.186Z,954.59
2017-11-08T09:42:21.174Z,954.61
2017-11-08T09:43:21.162Z,954.6
2017-11-08T09:44:21.151Z,954.6
2017-11-08T09:45:21.143Z,954.59
2017-11-08T09:46:21.127Z,954.58
2017-11-08T09:47:21.120Z,954.59
2017-11-08T09:48:21.153Z,954.58
2017-11-08T09:49:21.133Z,954.57
2017-11-08T09:50:21.082Z,954.63
2017-11-08T09:51:21.070Z,954.63
2017-11-08T09:52:21.071Z,954.62
2017-11-08T09:53:21.054Z,954.59
2017-11-08T09:54:21.036Z,954.57
2017-11-08T09:55:21.029Z,954.56
2017-11-08T09:56:21.018Z,954.6
2017-11-08T09:57:21.002Z,954.63
2017-11-08T09:58:20.991Z,954.67
2017-11-08T09:59:20.979Z,954.68
2017-11-08T10:00:20.968Z,954.7
2017-11-08T10:01:20.957Z,954.73
2017-11-08T10:02:20.960Z,954.69
2017-11-08T10:03:20.933Z,954.65
2017-11-08T10:04:20.921Z,954.65
2017-11-08T10:05:20.919Z,954.65
2017-11-08T10:06:20.897Z,954.69
2017-11-08T10:07:20.911Z,954.66
2017-11-08T10:08:20.905Z,954.68
2017-11-08T10:09:20.864Z,954.69
2017-11-08T10:10:20.852Z,954.66
2017-11-08T10:11:20.842Z,954.64
2017-11-08T10:12:20.836Z,954.7
2017-11-08T10:13:20.828Z,954.72
2017-11-08T10:14:20.829Z,954.65
2017-11-08T10:15:20.796Z,954.67
2017-11-08T10:16:20.787Z,954.67
2017-11-08T10:17:20.780Z,954.63
2017-11-08T10:18:20.760Z,954.61
2017-11-08T10:19:20.749Z,954.62
2017-11-08T10:20:20.738Z,954.62
2017-11-08T10:21:20.734Z,954.58
2017-11-08T10:22:20.715Z,954.56
2017-11-08T10:23:20.704Z,954.56
2017-11-08T10:24:20.729Z,954.58
2017-11-08T10:25:20.680Z,954.52
2017-11-08T10:26:20.669Z,954.52
2017-11-08T10:27:20.657Z,954.5
2017-11-08T10:28:20.665Z,954.46
2017-11-08T10:29:20.635Z,954.5
2017-11-08T10:30:20.622Z,954.51
2017-11-08T10:31:20.611Z,954.54
2017-11-08T10:32:20.604Z,954.53
2017-11-08T10:33:20.590Z,954.6
2017-11-08T10:34:20.577Z,954.6
2017-11-08T10:35:20.565Z,954.62
2017-11-08T10:36:20.553Z,954.62
2017-11-08T10:37:20.541Z,954.63
2017-11-08T10:38:20.531Z,954.61
2017-11-08T10:39:20.520Z,954.54
2017-11-08T10:40:20.508Z,954.56
2017-11-08T10:41:20.496Z,954.55
2017-11-08T10:42:20.448Z,954.57
2017-11-08T10:43:20.475Z,954.54
2017-11-08T10:44:20.426Z,954.56
2017-11-08T10:45:20.416Z,954.55
2017-11-08T10:46:20.401Z,954.6
2017-11-08T10:47:20.390Z,954.61
2017-11-08T10:48:20.379Z,954.59
2017-11-08T10:49:20.369Z,954.57
2017-11-08T10:50:20.356Z,954.57
2017-11-08T10:51:20.345Z,954.57
2017-11-08T10:52:20.334Z,954.52
2017-11-08T10:53:20.321Z,954.49
2017-11-08T10:54:20.309Z,954.51
2017-11-08T10:55:20.298Z,954.49
2017-11-08T10:56:20.285Z,954.49
2017-11-08T10:57:20.275Z,954.53
2017-11-08T10:58:20.271Z,954.53
2017-11-08T10:59:20.250Z,954.53
2017-11-08T11:00:20.239Z,954.55
2017-11-08T11:01:20.228Z,954.55
2017-11-08T11:02:20.216Z,954.54
2017-11-08T11:03:20.207Z,954.52
2017-11-08T11:04:20.194Z,954.52
2017-11-08T11:05:20.198Z,954.53
2017-11-08T11:06:20.187Z,954.57
2017-11-08T11:07:20.161Z,954.56
2017-11-08T11:08:20.150Z,954.56
2017-11-08T11:09:20.138Z,954.52
2017-11-08T11:10:20.128Z,954.52
2017-11-08T11:11:20.116Z,954.56
2017-11-08T11:12:20.105Z,954.61
2017-11-08T11:13:20.094Z,954.6
2017-11-08T11:14:20.083Z,954.6
2017-11-08T11:15:20.071Z,954.66
2017-11-08T11:16:20.060Z,954.68
2017-11-08T11:17:20.049Z,954.65
2017-11-08T11:18:20.068Z,954.65
2017-11-08T11:19:20.029Z,954.59
2017-11-08T11:20:20.017Z,954.58
2017-11-08T11:21:20.007Z,954.54
2017-11-08T11:22:19.994Z,954.52
2017-11-08T11:23:19.983Z,954.48
2017-11-08T11:24:19.973Z,954.49
2017-11-08T11:25:19.961Z,954.46
2017-11-08T11:26:19.951Z,954.46
2017-11-08T11:27:19.939Z,954.51
2017-11-08T11:28:19.931Z,954.51
2017-11-08T11:29:19.921Z,954.52
2017-11-08T11:30:19.904Z,954.46
2017-11-08T11:31:19.902Z,954.44
2017-11-08T11:32:19.883Z,954.54
2017-11-08T11:33:19.873Z,954.52
2017-11-08T11:34:19.862Z,954.55
2017-11-08T11:35:19.851Z,954.63
2017-11-08T11:36:19.845Z,954.61
2017-11-08T11:37:19.890Z,954.62
2017-11-08T11:38:19.843Z,954.64
2017-11-08T11:39:19.806Z,954.63
2017-11-08T11:40:19.817Z,954.6
2017-11-08T11:41:19.806Z,954.53
2017-11-08T11:42:19.776Z,954.57
2017-11-08T11:43:19.762Z,954.58
2017-11-08T11:44:19.751Z,954.62
2017-11-08T11:45:19.738Z,954.62
2017-11-08T11:46:19.760Z,954.58
2017-11-08T11:47:19.730Z,954.59
2017-11-08T11:48:19.728Z,954.52
2017-11-08T11:49:19.709Z,954.53
2017-11-08T11:50:19.683Z,954.48
2017-11-08T11:51:19.690Z,954.45
2017-11-08T11:52:19.660Z,954.45
2017-11-08T11:53:19.665Z,954.48
2017-11-08T11:54:19.642Z,954.48
2017-11-08T11:55:19.628Z,954.48
2017-11-08T11:56:19.615Z,954.47
2017-11-08T11:57:19.603Z,954.54
2017-11-08T11:58:19.593Z,954.56
2017-11-08T11:59:19.580Z,954.54
2017-11-08T12:00:19.570Z,954.49
2017-11-08T12:01:19.559Z,954.5
2017-11-08T12:02:19.548Z,954.54
2017-11-08T12:03:19.536Z,954.49
2017-11-08T12:04:19.524Z,954.44
2017-11-08T12:05:19.518Z,954.49
2017-11-08T12:06:19.502Z,954.48
2017-11-08T12:07:19.491Z,954.45
2017-11-08T12:08:19.481Z,954.43
2017-11-08T12:09:19.467Z,954.43
2017-11-08T12:10:19.455Z,954.44
2017-11-08T12:11:19.445Z,954.43
2017-11-08T12:12:19.444Z,954.42
2017-11-08T12:13:19.421Z,954.39
2017-11-08T12:14:19.409Z,954.45
2017-11-08T12:15:19.397Z,954.45
2017-11-08T12:16:19.385Z,954.48
2017-11-08T12:17:19.374Z,954.48
2017-11-08T12:18:19.363Z,954.48
2017-11-08T12:19:19.372Z,954.53
2017-11-08T12:20:19.364Z,954.49
2017-11-08T12:21:19.326Z,954.46
2017-11-08T12:22:19.321Z,954.45
2017-11-08T12:23:19.304Z,954.43
2017-11-08T12:24:19.298Z,954.44
2017-11-08T12:25:19.280Z,954.39
2017-11-08T12:26:19.267Z,954.42
2017-11-08T12:27:19.260Z,954.4
2017-11-08T12:28:19.245Z,954.4
2017-11-08T12:29:19.233Z,954.36
2017-11-08T12:30:19.221Z,954.33
2017-11-08T12:31:19.210Z,954.36